createdAt,value
2023-01-26T00:00:11.035Z,0.20
2023-01-26T00:02:41.170Z,0.30
2023-01-26T00:05:10.153Z,0.30
2023-01-26T00:07:39.486Z,0.30
2023-01-26T00:10:08.397Z,0.30
2023-01-26T00:12:36.847Z,0.20
2023-01-26T00:15:05.697Z,0.20
2023-01-26T00:17:34.037Z,0.30
2023-01-26T00:20:03.984Z,0.20
2023-01-26T00:22:32.999Z,0.20
2023-01-26T00:25:01.485Z,0.20
2023-01-26T00:27:30.032Z,0.20
2023-01-26T00:29:58.624Z,0.20
2023-01-26T00:32:27.076Z,0.20
2023-01-26T00:34:55.631Z,0.20
2023-01-26T00:37:25.736Z,0.20
2023-01-26T00:39:54.264Z,0.20
2023-01-26T00:42:24.230Z,0.20
2023-01-26T00:44:52.992Z,0.10
2023-01-26T00:47:21.444Z,0.10
2023-01-26T00:49:50.363Z,0.10
2023-01-26T00:52:18.951Z,0.10
2023-01-26T00:54:48.599Z,0.10
2023-01-26T00:57:17.088Z,0.10
2023-01-26T00:59:45.479Z,0.10
2023-01-26T01:02:13.901Z,0.10
2023-01-26T01:04:42.201Z,0.10
2023-01-26T01:07:10.566Z,0.10
2023-01-26T01:09:38.869Z,0.20
2023-01-26T01:12:09.033Z,0.20
2023-01-26T01:14:37.560Z,0.20
2023-01-26T01:17:05.999Z,0.20
2023-01-26T01:19:34.383Z,0.20
2023-01-26T01:22:04.328Z,0.10
2023-01-26T01:24:34.493Z,0.10
2023-01-26T01:27:03.206Z,0.20
2023-01-26T01:29:33.033Z,0.10
2023-01-26T01:32:01.427Z,0.10
2023-01-26T01:34:30.180Z,0.10
2023-01-26T01:36:58.660Z,0.10
2023-01-26T01:39:27.204Z,0.10
2023-01-26T01:41:55.523Z,0.10
2023-01-26T01:44:26.073Z,0.20
2023-01-26T01:47:00.378Z,0.10
2023-01-26T01:49:31.656Z,0.10
2023-01-26T01:52:05.290Z,0.10
2023-01-26T01:54:37.586Z,0.10
2023-01-26T01:57:16.004Z,0.20
2023-01-26T01:59:48.003Z,0.10
2023-01-26T02:02:17.754Z,0.20
2023-01-26T02:04:46.686Z,0.10
2023-01-26T02:07:15.606Z,0.20
2023-01-26T02:10:04.102Z,0.20
2023-01-26T02:12:35.357Z,0.10
2023-01-26T02:15:05.416Z,0.10
2023-01-26T02:17:35.232Z,0.10
2023-01-26T02:20:09.624Z,0.10
2023-01-26T02:22:46.924Z,0.10
2023-01-26T02:25:36.142Z,0.10
2023-01-26T02:28:06.005Z,0.10
2023-01-26T02:30:34.389Z,0.10
2023-01-26T02:33:02.963Z,0.10
2023-01-26T02:35:31.290Z,0.10
2023-01-26T02:37:59.621Z,0.10
2023-01-26T02:40:37.238Z,0.10
2023-01-26T02:43:06.145Z,0.10
2023-01-26T02:45:35.575Z,0.10
2023-01-26T02:48:06.495Z,0.10
2023-01-26T02:50:34.223Z,0.10
2023-01-26T02:53:05.099Z,0.10
2023-01-26T02:55:32.356Z,0.10
2023-01-26T02:58:03.728Z,0.10
2023-01-26T03:00:37.519Z,0.10
2023-01-26T03:03:13.536Z,0.10
2023-01-26T03:05:42.005Z,0.00
2023-01-26T03:08:10.354Z,0.00
2023-01-26T03:10:38.709Z,0.00
2023-01-26T03:13:07.299Z,0.00
2023-01-26T03:15:44.082Z,0.00
2023-01-26T03:18:30.948Z,0.00
2023-01-26T03:21:18.762Z,0.00
2023-01-26T03:24:07.865Z,0.00
2023-01-26T03:26:53.986Z,0.00
2023-01-26T03:29:23.045Z,0.00
2023-01-26T03:31:52.729Z,0.00
2023-01-26T03:34:21.643Z,0.00
2023-01-26T03:36:50.344Z,0.00
2023-01-26T03:39:32.949Z,0.00
2023-01-26T03:42:19.021Z,0.00
2023-01-26T03:45:05.054Z,0.00
2023-01-26T03:47:53.334Z,0.00
2023-01-26T03:50:38.888Z,-0.10
2023-01-26T03:53:33.372Z,-0.10
2023-01-26T03:56:18.527Z,-0.10
2023-01-26T03:58:47.639Z,0.00
2023-01-26T04:01:20.032Z,0.00
2023-01-26T04:04:10.115Z,0.00
2023-01-26T04:06:57.800Z,0.00
2023-01-26T04:09:26.556Z,-0.10
2023-01-26T04:11:55.148Z,-0.10
2023-01-26T04:14:49.199Z,-0.10
2023-01-26T04:17:37.592Z,-0.10
2023-01-26T04:20:26.573Z,-0.10
2023-01-26T04:22:55.197Z,-0.10
2023-01-26T04:25:24.021Z,-0.10
2023-01-26T04:27:52.554Z,0.00
2023-01-26T04:30:21.325Z,0.00
2023-01-26T04:32:49.795Z,0.00
2023-01-26T04:35:19.734Z,0.10
2023-01-26T04:37:49.391Z,0.00
2023-01-26T04:40:18.163Z,0.00
2023-01-26T04:42:46.642Z,0.00
2023-01-26T04:45:15.306Z,0.00
2023-01-26T04:47:43.807Z,0.00
2023-01-26T04:50:13.060Z,0.00
2023-01-26T04:52:43.313Z,-0.10
2023-01-26T04:55:12.011Z,-0.10
2023-01-26T04:57:40.491Z,-0.10
2023-01-26T05:00:11.347Z,-0.10
2023-01-26T05:02:42.792Z,-0.10
2023-01-26T05:05:11.590Z,-0.10
2023-01-26T05:07:40.087Z,-0.10
2023-01-26T05:10:12.624Z,0.00
2023-01-26T05:12:42.863Z,-0.10
2023-01-26T05:15:11.424Z,0.00
2023-01-26T05:17:39.389Z,0.00
2023-01-26T05:20:08.595Z,-0.10
2023-01-26T05:22:36.649Z,-0.10
2023-01-26T05:25:05.178Z,0.00
2023-01-26T05:27:34.595Z,-0.10
2023-01-26T05:30:02.580Z,0.00
2023-01-26T05:32:32.270Z,-0.10
2023-01-26T05:35:00.521Z,0.00
2023-01-26T05:37:29.775Z,0.00
2023-01-26T05:39:57.875Z,-0.10
2023-01-26T05:42:26.501Z,0.00
2023-01-26T05:44:55.913Z,-0.10
2023-01-26T05:47:24.489Z,-0.10
2023-01-26T05:49:52.473Z,0.00
2023-01-26T05:52:22.251Z,0.00
2023-01-26T05:54:50.504Z,0.00
2023-01-26T05:57:18.671Z,0.00
2023-01-26T05:59:46.811Z,-0.10
2023-01-26T06:02:16.232Z,0.00
2023-01-26T06:04:44.352Z,-0.10
2023-01-26T06:07:13.558Z,-0.10
2023-01-26T06:09:42.133Z,-0.10
2023-01-26T06:12:16.549Z,-0.10
2023-01-26T06:14:47.130Z,-0.10
2023-01-26T06:17:18.838Z,-0.10
2023-01-26T06:19:47.055Z,-0.10
2023-01-26T06:22:16.032Z,-0.20
2023-01-26T06:24:44.099Z,-0.10
2023-01-26T06:27:15.109Z,-0.20
2023-01-26T06:29:43.105Z,-0.10
2023-01-26T06:32:12.461Z,-0.20
2023-01-26T06:34:42.425Z,-0.20
2023-01-26T06:37:11.644Z,-0.20
2023-01-26T06:39:40.196Z,-0.20
2023-01-26T06:42:09.120Z,-0.20
2023-01-26T06:44:37.177Z,-0.20
2023-01-26T06:47:06.947Z,-0.20
2023-01-26T06:49:35.180Z,-0.20
2023-01-26T06:52:20.664Z,-0.20
2023-01-26T06:54:50.547Z,-0.20
2023-01-26T06:57:18.653Z,-0.20
2023-01-26T06:59:46.700Z,-0.30
2023-01-26T07:02:19.444Z,-0.20
2023-01-26T07:04:47.699Z,-0.20
2023-01-26T07:07:17.162Z,-0.30
2023-01-26T07:09:45.616Z,-0.30
2023-01-26T07:12:13.793Z,-0.30
2023-01-26T07:14:41.804Z,-0.30
2023-01-26T07:17:10.017Z,-0.30
2023-01-26T07:19:38.130Z,-0.30
2023-01-26T07:22:06.160Z,-0.30
2023-01-26T07:24:35.690Z,-0.30
2023-01-26T07:27:03.756Z,-0.30
2023-01-26T07:29:31.852Z,-0.30
2023-01-26T07:32:00.096Z,-0.30
2023-01-26T07:34:28.225Z,-0.30
2023-01-26T07:36:56.347Z,-0.30
2023-01-26T07:39:24.399Z,-0.30
2023-01-26T07:41:53.870Z,-0.30
2023-01-26T07:44:21.897Z,-0.20
2023-01-26T07:46:50.099Z,-0.30
2023-01-26T07:49:18.223Z,-0.30
2023-01-26T07:51:46.325Z,0.50
2023-01-26T07:54:14.461Z,-0.30
2023-01-26T07:56:44.151Z,-0.40
2023-01-26T07:59:14.032Z,-0.40
2023-01-26T08:01:42.227Z,-0.40
2023-01-26T08:04:11.753Z,-0.40
2023-01-26T08:06:39.862Z,-0.40
2023-01-26T08:09:08.106Z,-0.40
2023-01-26T08:11:36.403Z,-0.40
2023-01-26T08:14:05.620Z,-0.40
2023-01-26T08:16:35.813Z,-0.40
2023-01-26T08:19:04.017Z,-0.40
2023-01-26T08:21:32.038Z,-0.40
2023-01-26T08:24:02.098Z,-0.30
2023-01-26T08:26:31.889Z,-0.30
2023-01-26T08:29:00.043Z,-0.40
2023-01-26T08:31:28.398Z,-0.40
2023-01-26T08:33:58.116Z,-0.40
2023-01-26T08:36:26.485Z,-0.40
2023-01-26T08:38:55.722Z,-0.50
2023-01-26T08:41:24.129Z,-0.40
2023-01-26T08:43:52.993Z,-0.40
2023-01-26T08:46:21.239Z,-0.40
2023-01-26T08:48:49.353Z,-0.40
2023-01-26T08:51:18.766Z,-0.50
2023-01-26T08:53:46.851Z,-0.50
2023-01-26T08:56:15.055Z,-0.50
2023-01-26T08:58:43.179Z,-0.50
2023-01-26T09:01:13.848Z,-0.40
2023-01-26T09:03:42.202Z,-0.40
2023-01-26T09:06:11.955Z,-0.30
2023-01-26T09:08:41.482Z,-0.40
2023-01-26T09:11:10.078Z,-0.40
2023-01-26T09:13:39.092Z,-0.40
2023-01-26T09:16:08.630Z,-0.40
2023-01-26T09:18:37.703Z,-0.40
2023-01-26T09:21:07.334Z,-0.40
2023-01-26T09:23:36.672Z,-0.40
2023-01-26T09:26:06.341Z,-0.40
2023-01-26T09:28:34.434Z,-0.40
2023-01-26T09:31:05.238Z,-0.50
2023-01-26T09:33:33.578Z,-0.40
2023-01-26T09:36:05.737Z,-0.40
2023-01-26T09:38:33.838Z,-0.40
2023-01-26T09:41:09.616Z,-0.40
2023-01-26T09:43:41.656Z,-0.40
2023-01-26T09:46:23.001Z,-0.40
2023-01-26T09:49:02.482Z,-0.40
2023-01-26T09:51:35.918Z,-0.40
2023-01-26T09:54:10.478Z,-0.50
2023-01-26T09:56:41.100Z,-0.40
2023-01-26T09:59:24.215Z,-0.40
2023-01-26T10:02:00.280Z,-0.20
2023-01-26T10:04:36.595Z,-0.20
2023-01-26T10:07:09.962Z,-0.20
2023-01-26T10:09:39.869Z,-0.20
2023-01-26T10:12:17.515Z,-0.30
2023-01-26T10:14:51.100Z,-0.30
2023-01-26T10:17:21.777Z,0.00
2023-01-26T10:19:53.851Z,-0.30
2023-01-26T10:22:29.497Z,-0.40
2023-01-26T10:25:01.161Z,-0.30
2023-01-26T10:27:30.798Z,-0.30
2023-01-26T10:29:58.955Z,-0.30
2023-01-26T10:32:27.639Z,-0.30
2023-01-26T10:34:56.123Z,-0.30
2023-01-26T10:37:27.602Z,-0.30
2023-01-26T10:40:01.018Z,-0.40
2023-01-26T10:42:33.115Z,-0.40
2023-01-26T10:45:03.740Z,-0.30
2023-01-26T10:47:32.126Z,-0.30
2023-01-26T10:50:22.099Z,-0.30
2023-01-26T10:53:01.198Z,-0.30
2023-01-26T10:55:30.037Z,-0.20
2023-01-26T10:57:59.776Z,-0.20
2023-01-26T11:00:30.284Z,-0.20
2023-01-26T11:03:06.172Z,-0.20
2023-01-26T11:05:34.600Z,-0.40
2023-01-26T11:08:03.636Z,-0.30
2023-01-26T11:10:34.290Z,-0.20
2023-01-26T11:13:19.904Z,-0.20
2023-01-26T11:15:50.037Z,-0.20
2023-01-26T11:18:28.063Z,-0.20
2023-01-26T11:21:01.116Z,-0.20
2023-01-26T11:23:53.210Z,-0.20
2023-01-26T11:26:59.499Z,-0.20
2023-01-26T11:29:45.857Z,-0.10
2023-01-26T11:32:23.426Z,0.10
2023-01-26T11:35:03.210Z,-0.20
2023-01-26T11:37:42.841Z,-0.20
2023-01-26T11:40:30.150Z,-0.20
2023-01-26T11:43:16.236Z,-0.20
2023-01-26T11:46:10.957Z,-0.10
2023-01-26T11:48:50.181Z,-0.20
2023-01-26T11:51:26.152Z,-0.30
2023-01-26T11:54:09.684Z,-0.30
2023-01-26T11:56:49.580Z,-0.40
2023-01-26T11:59:22.746Z,-0.30
2023-01-26T12:01:57.818Z,-0.40
2023-01-26T12:04:25.917Z,0.10
2023-01-26T12:06:59.615Z,-0.30
2023-01-26T12:09:34.336Z,-0.30
2023-01-26T12:12:07.335Z,-0.30
2023-01-26T12:14:40.017Z,-0.30
2023-01-26T12:17:24.332Z,-0.30
2023-01-26T12:20:04.619Z,-0.30
2023-01-26T12:22:35.803Z,-0.30
2023-01-26T12:25:20.346Z,-0.20
2023-01-26T12:27:54.148Z,-0.20
2023-01-26T12:30:35.559Z,-0.20
2023-01-26T12:33:05.600Z,-0.10
2023-01-26T12:35:51.598Z,-0.20
2023-01-26T12:38:24.378Z,-0.10
2023-01-26T12:41:04.923Z,-0.20
2023-01-26T12:43:55.289Z,-0.10
2023-01-26T12:46:25.498Z,-0.20
2023-01-26T12:49:00.150Z,-0.20
2023-01-26T12:51:33.217Z,-0.10
2023-01-26T12:54:06.548Z,-0.10
2023-01-26T12:56:39.059Z,-0.20
2023-01-26T12:59:39.157Z,-0.10
2023-01-26T13:02:21.954Z,-0.10
2023-01-26T13:04:52.191Z,-0.10
2023-01-26T13:07:32.945Z,-0.10
2023-01-26T13:10:20.490Z,-0.10
2023-01-26T13:12:50.938Z,-0.10
2023-01-26T13:15:20.686Z,0.00
2023-01-26T13:17:54.617Z,0.00
2023-01-26T13:20:46.198Z,0.10
2023-01-26T13:23:53.218Z,-0.10
2023-01-26T13:26:46.101Z,0.00
2023-01-26T13:29:35.349Z,0.00
2023-01-26T13:32:48.340Z,0.00
2023-01-26T13:35:18.748Z,0.00
2023-01-26T13:37:54.543Z,0.10
2023-01-26T13:40:25.952Z,0.10
2023-01-26T13:42:59.254Z,0.10
2023-01-26T13:45:33.676Z,0.20
2023-01-26T13:48:05.303Z,0.10
2023-01-26T13:53:03.231Z,0.10
2023-01-26T13:55:33.612Z,0.00
2023-01-26T13:58:15.386Z,0.00
2023-01-26T14:00:43.968Z,-0.10
2023-01-26T14:03:23.249Z,-0.10
2023-01-26T14:05:57.003Z,-0.10
2023-01-26T14:08:26.932Z,0.00
2023-01-26T14:10:55.312Z,0.00
2023-01-26T14:13:29.589Z,-0.10
2023-01-26T14:16:00.490Z,0.00
2023-01-26T14:18:29.588Z,-0.10
2023-01-26T14:21:04.118Z,-0.20
2023-01-26T14:23:36.668Z,-0.10
2023-01-26T14:26:06.883Z,-0.10
2023-01-26T14:28:38.079Z,-0.20
2023-01-26T14:31:15.086Z,-0.20
2023-01-26T14:33:43.514Z,-0.20
2023-01-26T14:36:16.949Z,-0.20
2023-01-26T14:38:48.069Z,-0.20
2023-01-26T14:41:19.828Z,-0.30
2023-01-26T14:43:49.636Z,-0.30
2023-01-26T14:46:20.028Z,-0.30
2023-01-26T14:48:51.977Z,-0.40
2023-01-26T14:51:24.943Z,-0.30
2023-01-26T14:53:57.770Z,-0.40
2023-01-26T14:56:34.049Z,-0.40
2023-01-26T14:59:02.959Z,-0.40
2023-01-26T15:01:31.795Z,-0.40
2023-01-26T15:04:03.470Z,-0.40
2023-01-26T15:06:32.765Z,-0.30
2023-01-26T15:09:04.840Z,-0.40
2023-01-26T15:11:55.787Z,-0.40
2023-01-26T15:14:49.129Z,-0.40
2023-01-26T15:17:32.047Z,-0.40
2023-01-26T15:20:00.280Z,-0.40
2023-01-26T15:22:28.983Z,-0.40
2023-01-26T15:25:04.997Z,-0.40
2023-01-26T15:27:38.048Z,-0.40
2023-01-26T15:30:08.185Z,-0.40
2023-01-26T15:32:40.985Z,-0.40
2023-01-26T15:35:20.823Z,-0.40
2023-01-26T15:37:49.995Z,-0.40
2023-01-26T15:40:19.969Z,-0.40
2023-01-26T15:42:48.134Z,-0.40
2023-01-26T15:45:24.741Z,-0.50
2023-01-26T15:47:52.940Z,-0.50
2023-01-26T15:50:27.959Z,-0.50
2023-01-26T15:52:56.749Z,-0.60
2023-01-26T15:55:29.230Z,-0.60
2023-01-26T15:57:57.737Z,-0.50
2023-01-26T16:00:26.495Z,-0.50
2023-01-26T16:02:54.887Z,-0.50
2023-01-26T16:05:25.698Z,-0.50
2023-01-26T16:07:53.879Z,-0.50
2023-01-26T16:10:22.234Z,-0.50
2023-01-26T16:12:52.580Z,-0.50
2023-01-26T16:15:32.183Z,-0.50
2023-01-26T16:18:00.418Z,-0.50
2023-01-26T16:20:28.716Z,-0.50
2023-01-26T16:22:56.929Z,-0.50
2023-01-26T16:25:27.974Z,-0.50
2023-01-26T16:27:58.892Z,-0.50
2023-01-26T16:30:27.828Z,-0.50
2023-01-26T16:32:56.139Z,-0.60
2023-01-26T16:35:24.847Z,-0.50
2023-01-26T16:37:52.985Z,-0.60
2023-01-26T16:40:21.352Z,-0.60
2023-01-26T16:42:51.619Z,-0.60
2023-01-26T16:45:23.693Z,-0.60
2023-01-26T16:47:54.857Z,-0.60
2023-01-26T16:50:23.308Z,-0.60
2023-01-26T16:52:51.908Z,-0.60
2023-01-26T16:55:20.213Z,-0.60
2023-01-26T16:57:49.938Z,-0.60
2023-01-26T17:00:21.652Z,-0.70
2023-01-26T17:02:53.322Z,-0.70
2023-01-26T17:05:23.430Z,-0.70
2023-01-26T17:07:52.035Z,-0.60
2023-01-26T17:10:22.624Z,-0.70
2023-01-26T17:12:50.820Z,-0.70
2023-01-26T17:15:20.695Z,-0.70
2023-01-26T17:17:50.328Z,-0.60
2023-01-26T17:20:20.154Z,-0.60
2023-01-26T17:22:48.810Z,-0.70
2023-01-26T17:25:17.805Z,-0.70
2023-01-26T17:27:46.637Z,-0.70
2023-01-26T17:30:15.220Z,-0.70
2023-01-26T17:32:45.172Z,-0.70
2023-01-26T17:35:13.771Z,-0.70
2023-01-26T17:37:42.125Z,-0.60
2023-01-26T17:40:11.867Z,-0.70
2023-01-26T17:42:40.115Z,-0.70
2023-01-26T17:45:10.038Z,-0.70
2023-01-26T17:47:38.779Z,-0.60
2023-01-26T17:50:09.895Z,-0.60
2023-01-26T17:52:38.653Z,-0.70
2023-01-26T17:55:07.409Z,-0.70
2023-01-26T17:57:35.690Z,-0.70
2023-01-26T18:00:04.689Z,-0.60
2023-01-26T18:02:33.841Z,-0.60
2023-01-26T18:05:01.980Z,-0.60
2023-01-26T18:07:31.608Z,-0.70
2023-01-26T18:09:59.804Z,-0.60
2023-01-26T18:12:28.130Z,-0.60
2023-01-26T18:14:57.557Z,-0.60
2023-01-26T18:17:26.418Z,-0.50
2023-01-26T18:19:54.597Z,-0.50
2023-01-26T18:22:22.820Z,-0.50
2023-01-26T18:24:52.800Z,-0.50
2023-01-26T18:27:21.007Z,-0.50
2023-01-26T18:29:49.294Z,-0.50
2023-01-26T18:32:17.515Z,-0.50
2023-01-26T18:34:45.695Z,-0.50
2023-01-26T18:37:13.870Z,-0.50
2023-01-26T18:39:42.075Z,-0.50
2023-01-26T18:42:11.709Z,-0.50
2023-01-26T18:44:39.822Z,-0.50
2023-01-26T18:47:08.143Z,-0.50
2023-01-26T18:49:36.255Z,-0.50
2023-01-26T18:52:05.211Z,-0.50
2023-01-26T18:54:34.149Z,-0.50
2023-01-26T18:57:02.234Z,-0.50
2023-01-26T18:59:31.818Z,-0.20
2023-01-26T19:02:00.363Z,-0.40
2023-01-26T19:04:28.513Z,-0.40
2023-01-26T19:06:56.770Z,-0.50
2023-01-26T19:09:29.090Z,-0.40
2023-01-26T19:11:58.351Z,-0.40
2023-01-26T19:14:26.660Z,-0.40
2023-01-26T19:16:56.423Z,-0.40
2023-01-26T19:19:25.303Z,-0.40
2023-01-26T19:21:53.543Z,-0.50
2023-01-26T19:24:21.862Z,-0.50
2023-01-26T19:26:50.004Z,-0.50
2023-01-26T19:29:18.118Z,-0.50
2023-01-26T19:31:46.352Z,-0.50
2023-01-26T19:34:17.388Z,-0.50
2023-01-26T19:36:46.782Z,-0.50
2023-01-26T19:39:15.242Z,-0.50
2023-01-26T19:41:44.332Z,-0.50
2023-01-26T19:44:13.049Z,-0.50
2023-01-26T19:46:41.184Z,-0.50
2023-01-26T19:49:11.871Z,-0.50
2023-01-26T19:51:41.360Z,-0.40
2023-01-26T19:54:10.258Z,-0.40
2023-01-26T19:56:38.546Z,-0.40
2023-01-26T19:59:10.156Z,-0.40
2023-01-26T20:01:38.836Z,-0.40
2023-01-26T20:04:09.169Z,-0.40
2023-01-26T20:06:38.389Z,-0.40
2023-01-26T20:09:09.267Z,-0.40
2023-01-26T20:11:37.552Z,-0.40
2023-01-26T20:14:08.437Z,-0.40
2023-01-26T20:16:37.053Z,-0.40
2023-01-26T20:19:05.493Z,-0.40
2023-01-26T20:21:35.502Z,-0.40
2023-01-26T20:24:06.201Z,-0.40
2023-01-26T20:26:36.734Z,-0.40
2023-01-26T20:29:04.986Z,-0.40
2023-01-26T20:31:33.989Z,-0.40
2023-01-26T20:34:02.493Z,-0.40
2023-01-26T20:36:31.018Z,-0.40
2023-01-26T20:38:59.174Z,-0.40
2023-01-26T20:41:29.723Z,-0.40
2023-01-26T20:44:01.982Z,-0.40
2023-01-26T20:46:32.606Z,-0.20
2023-01-26T20:49:01.648Z,-0.30
2023-01-26T20:51:33.505Z,-0.30
2023-01-26T20:54:01.648Z,-0.40
2023-01-26T20:56:30.777Z,-0.30
2023-01-26T20:59:00.422Z,-0.30
2023-01-26T21:01:28.626Z,-0.30
2023-01-26T21:03:57.098Z,-0.30
2023-01-26T21:06:26.147Z,-0.30
2023-01-26T21:08:55.996Z,-0.30
2023-01-26T21:11:25.953Z,-0.30
2023-01-26T21:13:56.114Z,-0.30
2023-01-26T21:16:26.160Z,-0.30
2023-01-26T21:18:54.668Z,-0.30
2023-01-26T21:21:23.266Z,-0.20
2023-01-26T21:23:51.826Z,-0.20
2023-01-26T21:26:22.341Z,-0.20
2023-01-26T21:28:52.172Z,-0.20
2023-01-26T21:31:21.956Z,-0.20
2023-01-26T21:33:52.459Z,-0.20
2023-01-26T21:36:22.433Z,-0.10
2023-01-26T21:38:52.246Z,-0.10
2023-01-26T21:41:39.729Z,-0.10
2023-01-26T21:44:10.093Z,-0.10
2023-01-26T21:46:38.523Z,-0.10
2023-01-26T21:49:08.917Z,-0.10
2023-01-26T21:51:54.478Z,-0.10
2023-01-26T21:54:22.651Z,-0.10
2023-01-26T21:56:50.845Z,-0.10
2023-01-26T21:59:19.501Z,-0.10
2023-01-26T22:01:49.245Z,0.10
2023-01-26T22:04:20.564Z,-0.10
2023-01-26T22:06:48.852Z,-0.10
2023-01-26T22:09:18.060Z,-0.10
2023-01-26T22:11:46.512Z,-0.10
2023-01-26T22:14:16.597Z,-0.10
2023-01-26T22:16:44.824Z,-0.10
2023-01-26T22:19:13.740Z,-0.10
2023-01-26T22:21:44.803Z,-0.10
2023-01-26T22:24:15.117Z,0.10
2023-01-26T22:26:43.396Z,0.00
2023-01-26T22:29:12.677Z,0.00
2023-01-26T22:31:41.747Z,0.00
2023-01-26T22:34:11.616Z,0.00
2023-01-26T22:36:40.123Z,-0.10
2023-01-26T22:39:09.860Z,0.00
2023-01-26T22:41:38.051Z,0.00
2023-01-26T22:44:06.536Z,0.00
2023-01-26T22:46:34.708Z,0.00
2023-01-26T22:49:04.062Z,0.00
2023-01-26T22:51:36.942Z,0.10
2023-01-26T22:54:05.711Z,0.00
2023-01-26T22:56:35.286Z,0.00
2023-01-26T22:59:03.333Z,0.10
2023-01-26T23:01:33.556Z,0.00
2023-01-26T23:04:02.123Z,0.00
2023-01-26T23:06:30.833Z,0.00
2023-01-26T23:09:01.288Z,0.00
2023-01-26T23:11:31.003Z,0.90
2023-01-26T23:14:01.793Z,0.00
2023-01-26T23:16:30.969Z,0.00
2023-01-26T23:19:00.680Z,0.00
2023-01-26T23:21:30.182Z,0.00
2023-01-26T23:23:59.198Z,0.00
2023-01-26T23:26:27.858Z,0.00
2023-01-26T23:28:56.338Z,0.00
2023-01-26T23:31:26.391Z,0.00
2023-01-26T23:33:54.928Z,0.00
2023-01-26T23:36:23.572Z,0.00
2023-01-26T23:38:52.688Z,0.00
2023-01-26T23:41:21.069Z,0.00
2023-01-26T23:43:49.475Z,0.00
2023-01-26T23:46:17.802Z,0.10
2023-01-26T23:48:47.724Z,0.10
2023-01-26T23:51:16.464Z,0.10
2023-01-26T23:53:45.039Z,0.10
2023-01-26T23:56:16.667Z,0.10
2023-01-26T23:58:45.992Z,0.20
